createdAt,value
2022-10-04T00:02:22.161Z,98934.00
2022-10-04T00:05:05.195Z,98936.00
2022-10-04T00:07:41.496Z,98938.00
2022-10-04T00:10:38.432Z,98948.00
2022-10-04T00:13:20.840Z,98942.00
2022-10-04T00:15:52.925Z,98946.00
2022-10-04T00:18:42.838Z,98942.00
2022-10-04T00:21:12.303Z,98947.00
2022-10-04T00:23:47.268Z,98951.00
2022-10-04T00:27:15.251Z,98953.00
2022-10-04T00:29:44.050Z,98961.00
2022-10-04T00:32:50.878Z,98959.00
2022-10-04T00:35:49.795Z,98962.00
2022-10-04T00:38:29.894Z,98955.00
2022-10-04T00:41:10.680Z,98946.00
2022-10-04T00:43:51.016Z,98955.00
2022-10-04T00:46:29.062Z,98943.00
2022-10-04T00:49:07.575Z,98952.00
2022-10-04T00:51:51.538Z,98963.00
2022-10-04T00:54:35.225Z,98960.00
2022-10-04T00:57:17.472Z,98958.00
2022-10-04T00:59:57.308Z,98960.00
2022-10-04T01:02:58.718Z,98958.00
2022-10-04T01:05:43.918Z,98953.00
2022-10-04T01:08:27.147Z,98951.00
2022-10-04T01:11:18.089Z,98956.00
2022-10-04T01:14:16.054Z,98954.00
2022-10-04T01:16:47.264Z,98962.00
2022-10-04T01:19:33.257Z,98968.00
2022-10-04T01:22:19.471Z,98969.00
2022-10-04T01:24:51.756Z,98965.00
2022-10-04T01:27:44.818Z,98962.00
2022-10-04T01:30:18.757Z,98960.00
2022-10-04T01:32:48.009Z,98957.00
2022-10-04T01:35:20.165Z,98955.00
2022-10-04T01:37:52.197Z,98963.00
2022-10-04T01:40:24.631Z,98968.00
2022-10-04T01:43:08.451Z,98979.00
2022-10-04T01:46:03.262Z,98974.00
2022-10-04T01:48:39.721Z,98981.00
2022-10-04T01:51:35.728Z,98982.00
2022-10-04T01:54:24.087Z,98996.00
2022-10-04T01:57:01.250Z,98997.00
2022-10-04T02:00:02.250Z,98984.00
2022-10-04T02:03:07.122Z,98985.00
2022-10-04T02:05:44.073Z,98982.00
2022-10-04T02:08:20.280Z,98978.00
2022-10-04T02:10:54.560Z,98981.00
2022-10-04T02:13:30.485Z,98980.00
2022-10-04T02:16:01.628Z,98983.00
2022-10-04T02:18:35.241Z,98987.00
2022-10-04T02:21:08.694Z,98980.00
2022-10-04T02:23:42.335Z,98976.00
2022-10-04T02:26:13.750Z,98987.00
2022-10-04T02:28:43.008Z,98979.00
2022-10-04T02:31:25.011Z,98984.00
2022-10-04T02:33:59.877Z,98984.00
2022-10-04T02:36:31.297Z,98982.00
2022-10-04T02:39:45.286Z,98991.00
2022-10-04T02:42:56.476Z,98984.00
2022-10-04T02:46:19.116Z,98991.00
2022-10-04T02:49:00.396Z,98985.00
2022-10-04T02:52:00.381Z,98993.00
2022-10-04T02:55:04.231Z,98996.00
2022-10-04T02:57:36.210Z,99005.00
2022-10-04T03:00:25.919Z,99003.00
2022-10-04T03:03:31.434Z,99004.00
2022-10-04T03:06:12.645Z,99000.00
2022-10-04T03:09:00.147Z,99007.00
2022-10-04T03:11:39.556Z,99005.00
2022-10-04T03:14:16.318Z,99006.00
2022-10-04T03:16:49.780Z,99005.00
2022-10-04T03:19:21.997Z,99003.00
2022-10-04T03:21:56.194Z,99009.00
2022-10-04T03:24:47.948Z,98996.00
2022-10-04T03:27:38.419Z,98999.00
2022-10-04T03:30:08.626Z,99001.00
2022-10-04T03:32:39.714Z,98999.00
2022-10-04T03:35:31.489Z,98995.00
2022-10-04T03:38:04.214Z,98988.00
2022-10-04T03:40:35.400Z,98992.00
2022-10-04T03:43:07.020Z,98990.00
2022-10-04T03:45:37.083Z,98991.00
2022-10-04T03:48:14.383Z,98989.00
2022-10-04T03:50:51.213Z,98982.00
2022-10-04T03:53:44.092Z,98968.00
2022-10-04T03:56:36.754Z,98971.00
2022-10-04T03:59:08.158Z,98978.00
2022-10-04T04:02:19.877Z,98973.00
2022-10-04T04:05:16.601Z,98968.00
2022-10-04T04:08:34.344Z,98965.00
2022-10-04T04:11:08.294Z,98961.00
2022-10-04T04:14:06.583Z,98961.00
2022-10-04T04:16:38.698Z,98955.00
2022-10-04T04:19:17.628Z,98955.00
2022-10-04T04:21:48.152Z,98956.00
2022-10-04T04:24:33.052Z,98947.00
2022-10-04T04:27:06.227Z,98958.00
2022-10-04T04:29:50.813Z,98946.00
2022-10-04T04:32:37.821Z,98940.00
2022-10-04T04:35:21.575Z,98930.00
2022-10-04T04:38:26.189Z,98925.00
2022-10-04T04:40:56.667Z,98917.00
2022-10-04T04:43:30.132Z,98919.00
2022-10-04T04:46:25.512Z,98919.00
2022-10-04T04:48:57.387Z,98910.00
2022-10-04T04:51:27.191Z,98912.00
2022-10-04T04:53:59.708Z,98904.00
2022-10-04T04:56:31.881Z,98899.00
2022-10-04T04:59:08.193Z,98899.00
2022-10-04T05:01:51.041Z,98901.00
2022-10-04T05:04:24.355Z,98896.00
2022-10-04T05:07:07.454Z,98894.00
2022-10-04T05:09:42.614Z,98882.00
2022-10-04T05:12:24.089Z,98885.00
2022-10-04T05:14:58.048Z,98886.00
2022-10-04T05:17:36.130Z,98880.00
2022-10-04T05:20:06.496Z,98882.00
2022-10-04T05:22:36.975Z,98869.00
2022-10-04T05:25:30.823Z,98866.00
2022-10-04T05:28:00.576Z,98858.00
2022-10-04T05:31:28.787Z,98865.00
2022-10-04T05:34:00.568Z,98854.00
2022-10-04T05:37:12.023Z,98851.00
2022-10-04T05:40:15.158Z,98838.00
2022-10-04T05:42:50.418Z,98836.00
2022-10-04T05:45:28.184Z,98827.00
2022-10-04T05:48:07.713Z,98816.00
2022-10-04T05:50:44.961Z,98811.00
2022-10-04T05:53:36.852Z,98816.00
2022-10-04T05:56:47.666Z,98802.00
2022-10-04T06:00:04.647Z,98795.00
2022-10-04T06:03:05.091Z,98783.00
2022-10-04T06:06:13.074Z,98780.00
2022-10-04T06:09:11.331Z,98773.00
2022-10-04T06:12:31.197Z,98771.00
2022-10-04T06:15:34.739Z,98769.00
2022-10-04T06:18:56.171Z,98756.00
2022-10-04T06:21:30.626Z,98764.00
2022-10-04T06:24:23.910Z,98751.00
2022-10-04T06:27:17.448Z,98750.00
2022-10-04T06:30:12.128Z,98751.00
2022-10-04T06:33:26.513Z,98749.00
2022-10-04T06:36:48.036Z,98746.00
2022-10-04T06:40:04.502Z,98738.00
2022-10-04T06:43:12.369Z,98739.00
2022-10-04T06:46:05.733Z,98718.00
2022-10-04T06:49:18.519Z,98717.00
2022-10-04T06:52:35.663Z,98723.00
2022-10-04T06:55:49.190Z,98708.00
2022-10-04T06:59:01.855Z,98696.00
2022-10-04T07:01:39.690Z,98698.00
2022-10-04T07:05:07.667Z,98696.00
2022-10-04T07:07:42.919Z,98695.00
2022-10-04T07:10:52.986Z,98686.00
2022-10-04T07:14:06.157Z,98684.00
2022-10-04T07:17:06.170Z,98693.00
2022-10-04T07:19:50.586Z,98685.00
2022-10-04T07:22:46.425Z,98683.00
2022-10-04T07:25:45.430Z,98678.00
2022-10-04T07:28:39.169Z,98679.00
2022-10-04T07:31:31.538Z,98679.00
2022-10-04T07:34:17.750Z,98676.00
2022-10-04T07:36:54.764Z,98672.00
2022-10-04T07:39:53.427Z,98669.00
2022-10-04T07:42:48.350Z,98656.00
2022-10-04T07:45:40.962Z,98660.00
2022-10-04T07:48:26.962Z,98660.00
2022-10-04T07:51:37.985Z,98656.00
2022-10-04T07:54:36.681Z,98651.00
2022-10-04T07:57:28.589Z,98643.00
2022-10-04T08:00:42.565Z,98637.00
2022-10-04T08:04:03.118Z,98642.00
2022-10-04T08:07:06.753Z,98636.00
2022-10-04T08:10:29.020Z,98638.00
2022-10-04T08:13:34.446Z,98638.00
2022-10-04T08:16:32.988Z,98643.00
2022-10-04T08:19:41.541Z,98641.00
2022-10-04T08:22:51.466Z,98637.00
2022-10-04T08:26:12.826Z,98640.00
2022-10-04T08:29:30.813Z,98631.00
2022-10-04T08:32:44.808Z,98632.00
2022-10-04T08:35:43.946Z,98625.00
2022-10-04T08:38:57.937Z,98622.00
2022-10-04T08:42:18.466Z,98616.00
2022-10-04T08:45:33.388Z,98617.00
2022-10-04T08:48:37.216Z,98605.00
2022-10-04T08:51:52.215Z,98607.00
2022-10-04T08:55:06.479Z,98601.00
2022-10-04T08:58:18.037Z,98600.00
2022-10-04T09:01:07.486Z,98604.00
2022-10-04T09:04:21.904Z,98605.00
2022-10-04T09:07:35.049Z,98607.00
2022-10-04T09:10:48.816Z,98613.00
2022-10-04T09:13:54.562Z,98612.00
2022-10-04T09:17:09.414Z,98609.00
2022-10-04T09:20:41.097Z,98613.00
2022-10-04T09:24:01.701Z,98609.00
2022-10-04T09:27:04.681Z,98615.00
2022-10-04T09:30:15.573Z,98616.00
2022-10-04T09:33:36.273Z,98617.00
2022-10-04T09:36:56.851Z,98609.00
2022-10-04T09:40:18.235Z,98613.00
2022-10-04T09:43:31.441Z,98617.00
2022-10-04T09:47:00.962Z,98620.00
2022-10-04T09:50:14.785Z,98628.00
2022-10-04T09:53:32.017Z,98638.00
2022-10-04T09:56:38.352Z,98635.00
2022-10-04T10:00:08.353Z,98640.00
2022-10-04T10:03:21.237Z,98636.00
2022-10-04T10:06:13.940Z,98630.00
2022-10-04T10:09:12.604Z,98631.00
2022-10-04T10:12:37.984Z,98646.00
2022-10-04T10:15:56.957Z,98648.00
2022-10-04T10:19:00.089Z,98651.00
2022-10-04T10:21:58.246Z,98646.00
2022-10-04T10:25:09.516Z,98652.00
2022-10-04T10:28:30.002Z,98656.00
2022-10-04T10:31:47.600Z,98657.00
2022-10-04T10:35:09.745Z,98656.00
2022-10-04T10:38:23.130Z,98658.00
2022-10-04T10:41:33.267Z,98665.00
2022-10-04T10:44:44.615Z,98660.00
2022-10-04T10:47:57.133Z,98660.00
2022-10-04T10:51:04.354Z,98664.00
2022-10-04T10:54:10.210Z,98664.00
2022-10-04T10:57:38.137Z,98677.00
2022-10-04T11:00:36.341Z,98679.00
2022-10-04T11:03:49.600Z,98695.00
2022-10-04T11:07:07.350Z,98692.00
2022-10-04T11:10:13.150Z,98693.00
2022-10-04T11:13:27.524Z,98703.00
2022-10-04T11:16:41.596Z,98708.00
2022-10-04T11:19:54.746Z,98716.00
2022-10-04T11:23:08.371Z,98734.00
2022-10-04T11:26:14.865Z,98739.00
2022-10-04T11:29:15.550Z,98732.00
2022-10-04T11:32:32.273Z,98732.00
2022-10-04T11:35:38.857Z,98742.00
2022-10-04T11:38:49.538Z,98740.00
2022-10-04T11:42:06.444Z,98741.00
2022-10-04T11:45:34.416Z,98748.00
2022-10-04T11:48:33.483Z,98746.00
2022-10-04T11:51:39.240Z,98753.00
2022-10-04T11:54:52.359Z,98761.00
2022-10-04T11:58:00.653Z,98754.00
2022-10-04T12:01:04.098Z,98765.00
2022-10-04T12:04:15.612Z,98769.00
2022-10-04T12:07:35.163Z,98768.00
2022-10-04T12:10:35.482Z,98777.00
2022-10-04T12:13:33.458Z,98777.00
2022-10-04T12:16:42.301Z,98784.00
2022-10-04T12:20:11.925Z,98800.00
2022-10-04T12:23:38.815Z,98804.00
2022-10-04T12:27:06.757Z,98817.00
2022-10-04T12:30:16.493Z,98833.00
2022-10-04T12:33:22.024Z,98829.00
2022-10-04T12:36:34.276Z,98820.00
2022-10-04T12:39:45.457Z,98826.00
2022-10-04T12:42:50.508Z,98837.00
2022-10-04T12:45:58.248Z,98856.00
2022-10-04T12:49:00.897Z,98866.00
2022-10-04T12:52:12.981Z,98894.00
2022-10-04T12:55:00.917Z,98906.00
2022-10-04T12:58:07.534Z,98910.00
2022-10-04T13:00:49.758Z,98919.00
2022-10-04T13:03:55.991Z,98913.00
2022-10-04T13:07:15.658Z,98914.00
2022-10-04T13:10:29.595Z,98904.00
2022-10-04T13:13:51.345Z,98928.00
2022-10-04T13:20:27.319Z,98921.00
2022-10-04T13:23:33.120Z,98905.00
2022-10-04T13:26:38.513Z,98899.00
2022-10-04T13:29:37.453Z,98895.00
2022-10-04T13:32:30.898Z,98889.00
2022-10-04T13:35:36.941Z,98877.00
2022-10-04T13:38:56.026Z,98871.00
2022-10-04T13:42:16.601Z,98862.00
2022-10-04T13:45:27.614Z,98878.00
2022-10-04T13:48:43.540Z,98888.00
2022-10-04T13:51:42.399Z,98891.00
2022-10-04T13:54:51.460Z,98887.00
2022-10-04T13:58:08.764Z,98895.00
2022-10-04T14:01:23.470Z,98895.00
2022-10-04T14:04:43.553Z,98899.00
2022-10-04T14:08:04.099Z,98909.00
2022-10-04T14:11:24.980Z,98906.00
2022-10-04T14:14:53.168Z,98910.00
2022-10-04T14:18:23.553Z,98900.00
2022-10-04T14:21:40.390Z,98897.00
2022-10-04T14:24:49.131Z,98896.00
2022-10-04T14:28:04.672Z,98896.00
2022-10-04T14:31:22.186Z,98901.00
2022-10-04T14:34:38.716Z,98903.00
2022-10-04T14:37:55.015Z,98899.00
2022-10-04T14:41:06.008Z,98904.00
2022-10-04T14:44:11.750Z,98900.00
2022-10-04T14:47:32.374Z,98906.00
2022-10-04T14:50:50.086Z,98892.00
2022-10-04T14:54:06.784Z,98890.00
2022-10-04T14:57:21.203Z,98890.00
2022-10-04T15:00:24.867Z,98876.00
2022-10-04T15:03:48.470Z,98883.00
2022-10-04T15:06:54.227Z,98876.00
2022-10-04T15:10:13.696Z,98884.00
2022-10-04T15:13:24.481Z,98877.00
2022-10-04T15:16:34.899Z,98874.00
2022-10-04T15:19:38.614Z,98863.00
2022-10-04T15:22:48.770Z,98865.00
2022-10-04T15:25:48.305Z,98861.00
2022-10-04T15:29:08.076Z,98866.00
2022-10-04T15:31:58.549Z,98868.00
2022-10-04T15:35:07.040Z,98866.00
2022-10-04T15:38:15.383Z,98855.00
2022-10-04T15:41:19.857Z,98859.00
2022-10-04T15:44:29.913Z,98859.00
2022-10-04T15:47:35.753Z,98843.00
2022-10-04T15:50:44.244Z,98851.00
2022-10-04T15:54:00.380Z,98840.00
2022-10-04T15:56:55.946Z,98839.00
2022-10-04T16:00:03.345Z,98838.00
2022-10-04T16:03:11.912Z,98835.00
2022-10-04T16:06:09.177Z,98826.00
2022-10-04T16:09:38.549Z,98841.00
2022-10-04T16:12:30.745Z,98847.00
2022-10-04T16:15:33.947Z,98858.00
2022-10-04T16:18:43.815Z,98845.00
2022-10-04T16:21:55.784Z,98864.00
2022-10-04T16:24:50.527Z,98864.00
2022-10-04T16:28:05.858Z,98864.00
2022-10-04T16:31:09.410Z,98861.00
2022-10-04T16:33:56.102Z,98864.00
2022-10-04T16:36:43.988Z,98867.00
2022-10-04T16:39:43.847Z,98858.00
2022-10-04T16:42:18.777Z,98862.00
2022-10-04T16:45:31.951Z,98852.00
2022-10-04T16:48:29.040Z,98861.00
2022-10-04T16:51:49.540Z,98859.00
2022-10-04T16:54:58.816Z,98856.00
2022-10-04T16:57:28.901Z,98859.00
2022-10-04T17:00:34.839Z,98847.00
2022-10-04T17:03:31.878Z,98848.00
2022-10-04T17:06:32.285Z,98846.00
2022-10-04T17:09:50.117Z,98842.00
2022-10-04T17:12:54.139Z,98835.00
2022-10-04T17:16:00.357Z,98831.00
2022-10-04T17:19:30.044Z,98830.00
2022-10-04T17:22:35.819Z,98827.00
2022-10-04T17:25:45.647Z,98816.00
2022-10-04T17:28:36.288Z,98813.00
2022-10-04T17:31:26.912Z,98810.00
2022-10-04T17:34:40.093Z,98817.00
2022-10-04T17:38:00.638Z,98812.00
2022-10-04T17:41:25.552Z,98811.00
2022-10-04T17:44:28.472Z,98806.00
2022-10-04T17:47:24.820Z,98813.00
2022-10-04T17:50:32.139Z,98809.00
2022-10-04T17:53:30.743Z,98810.00
2022-10-04T17:56:04.055Z,98802.00
2022-10-04T17:58:54.971Z,98797.00
2022-10-04T18:01:51.103Z,98797.00
2022-10-04T18:04:29.018Z,98794.00
2022-10-04T18:07:20.474Z,98796.00
2022-10-04T18:10:39.643Z,98781.00
2022-10-04T18:13:31.702Z,98781.00
2022-10-04T18:16:33.486Z,98776.00
2022-10-04T18:19:55.833Z,98777.00
2022-10-04T18:22:30.276Z,98765.00
2022-10-04T18:25:27.199Z,98768.00
2022-10-04T18:28:21.946Z,98753.00
2022-10-04T18:31:06.267Z,98758.00
2022-10-04T18:33:52.405Z,98758.00
2022-10-04T18:36:32.936Z,98756.00
2022-10-04T18:39:23.743Z,98754.00
2022-10-04T18:42:24.704Z,98753.00
2022-10-04T18:45:24.696Z,98753.00
2022-10-04T18:47:58.832Z,98751.00
2022-10-04T18:50:45.906Z,98759.00
2022-10-04T18:53:49.005Z,98754.00
2022-10-04T18:56:21.575Z,98751.00
2022-10-04T18:59:40.336Z,98746.00
2022-10-04T19:03:11.362Z,98740.00
2022-10-04T19:06:20.994Z,98739.00
2022-10-04T19:09:26.202Z,98740.00
2022-10-04T19:12:19.890Z,98743.00
2022-10-04T19:15:30.823Z,98735.00
2022-10-04T19:18:51.603Z,98729.00
2022-10-04T19:22:12.236Z,98735.00
2022-10-04T19:25:35.941Z,98728.00
2022-10-04T19:28:36.443Z,98737.00
2022-10-04T19:31:49.255Z,98739.00
2022-10-04T19:34:54.968Z,98746.00
2022-10-04T19:38:11.157Z,98735.00
2022-10-04T19:40:55.059Z,98723.00
2022-10-04T19:44:11.302Z,98722.00
2022-10-04T19:47:23.211Z,98718.00
2022-10-04T19:50:22.488Z,98718.00
2022-10-04T19:53:04.383Z,98712.00
2022-10-04T19:55:56.876Z,98712.00
2022-10-04T19:58:48.250Z,98710.00
2022-10-04T20:01:25.052Z,98711.00
2022-10-04T20:04:08.475Z,98714.00
2022-10-04T20:06:39.364Z,98712.00
2022-10-04T20:09:59.884Z,98707.00
2022-10-04T20:13:04.927Z,98707.00
2022-10-04T20:16:00.705Z,98709.00
2022-10-04T20:18:59.951Z,98700.00
2022-10-04T20:21:34.067Z,98704.00
2022-10-04T20:24:05.431Z,98699.00
2022-10-04T20:27:07.672Z,98699.00
2022-10-04T20:30:04.966Z,98703.00
2022-10-04T20:32:58.649Z,98698.00
2022-10-04T20:36:02.129Z,98708.00
2022-10-04T20:39:01.903Z,98716.00
2022-10-04T20:42:00.227Z,98723.00
2022-10-04T20:45:02.713Z,98722.00
2022-10-04T20:47:58.756Z,98732.00
2022-10-04T20:50:39.099Z,98735.00
2022-10-04T20:53:32.730Z,98731.00
2022-10-04T20:56:32.348Z,98733.00
2022-10-04T20:59:04.264Z,98729.00
2022-10-04T21:01:38.583Z,98726.00
2022-10-04T21:04:42.008Z,98727.00
2022-10-04T21:07:18.104Z,98724.00
2022-10-04T21:09:47.714Z,98729.00
2022-10-04T21:12:39.260Z,98731.00
2022-10-04T21:15:23.846Z,98736.00
2022-10-04T21:18:07.047Z,98733.00
2022-10-04T21:20:51.337Z,98733.00
2022-10-04T21:23:38.926Z,98736.00
2022-10-04T21:26:26.982Z,98733.00
2022-10-04T21:29:00.622Z,98736.00
2022-10-04T21:31:29.848Z,98728.00
2022-10-04T21:33:59.035Z,98733.00
2022-10-04T21:36:28.182Z,98729.00
2022-10-04T21:38:57.314Z,98725.00
2022-10-04T21:41:26.392Z,98725.00
2022-10-04T21:43:55.435Z,98724.00
2022-10-04T21:46:24.534Z,98724.00
2022-10-04T21:48:53.706Z,98729.00
2022-10-04T21:51:22.813Z,98731.00
2022-10-04T21:53:52.367Z,98737.00
2022-10-04T21:56:21.444Z,98728.00
2022-10-04T21:58:50.620Z,98729.00
2022-10-04T22:01:19.735Z,98728.00
2022-10-04T22:03:48.987Z,98734.00
2022-10-04T22:06:18.795Z,98730.00
2022-10-04T22:08:48.136Z,98738.00
2022-10-04T22:11:17.330Z,98743.00
2022-10-04T22:13:47.760Z,98737.00
2022-10-04T22:16:17.543Z,98736.00
2022-10-04T22:18:46.756Z,98747.00
2022-10-04T22:21:15.935Z,98744.00
2022-10-04T22:23:46.714Z,98740.00
2022-10-04T22:26:23.553Z,98744.00
2022-10-04T22:28:57.168Z,98745.00
2022-10-04T22:31:30.988Z,98749.00
2022-10-04T22:34:00.293Z,98758.00
2022-10-04T22:36:50.480Z,98758.00
2022-10-04T22:39:22.108Z,98758.00
2022-10-04T22:41:58.682Z,98759.00
2022-10-04T22:44:37.108Z,98762.00
2022-10-04T22:47:13.546Z,98769.00
2022-10-04T22:49:48.071Z,98783.00
2022-10-04T22:52:23.229Z,98771.00
2022-10-04T22:54:58.196Z,98780.00
2022-10-04T22:57:31.459Z,98786.00
2022-10-04T23:00:00.591Z,98792.00
2022-10-04T23:02:32.261Z,98799.00
2022-10-04T23:05:21.324Z,98799.00
2022-10-04T23:07:51.076Z,98800.00
2022-10-04T23:10:21.831Z,98798.00
2022-10-04T23:12:51.714Z,98805.00
2022-10-04T23:15:22.757Z,98804.00
2022-10-04T23:17:56.813Z,98805.00
2022-10-04T23:20:26.349Z,98811.00
2022-10-04T23:23:00.683Z,98817.00
2022-10-04T23:25:31.659Z,98826.00
2022-10-04T23:28:12.825Z,98827.00
2022-10-04T23:30:42.549Z,98831.00
2022-10-04T23:33:24.879Z,98831.00
2022-10-04T23:35:56.347Z,98838.00
2022-10-04T23:38:26.408Z,98845.00
2022-10-04T23:40:55.623Z,98848.00
2022-10-04T23:43:27.796Z,98851.00
2022-10-04T23:45:59.587Z,98862.00
2022-10-04T23:48:32.960Z,98863.00
2022-10-04T23:51:02.354Z,98858.00
2022-10-04T23:53:34.798Z,98866.00
2022-10-04T23:56:13.739Z,98864.00
2022-10-04T23:58:46.859Z,98870.00
